createdAt,value
2018-03-26T00:00:03.787Z,46.20
2018-03-26T00:01:03.630Z,47.00
2018-03-26T00:02:03.635Z,46.00
2018-03-26T00:03:03.487Z,46.20
2018-03-26T00:04:03.498Z,47.50
2018-03-26T00:05:03.304Z,46.90
2018-03-26T00:06:03.314Z,47.10
2018-03-26T00:07:03.140Z,47.80
2018-03-26T00:08:03.164Z,46.00
2018-03-26T00:09:02.999Z,46.60
2018-03-26T00:10:03.023Z,47.60
2018-03-26T00:11:02.819Z,45.70
2018-03-26T00:12:02.838Z,48.10
2018-03-26T00:13:02.681Z,47.80
2018-03-26T00:14:02.693Z,48.00
2018-03-26T00:15:02.499Z,47.70
2018-03-26T00:16:02.455Z,46.70
2018-03-26T00:17:02.392Z,46.70
2018-03-26T00:18:02.396Z,47.40
2018-03-26T00:19:02.288Z,47.30
2018-03-26T00:20:02.175Z,47.50
2018-03-26T00:21:02.010Z,49.40
2018-03-26T00:22:02.084Z,47.30
2018-03-26T00:23:01.858Z,47.50
2018-03-26T00:24:01.832Z,48.60
2018-03-26T00:25:01.708Z,49.70
2018-03-26T00:26:01.702Z,48.50
2018-03-26T00:27:01.540Z,49.30
2018-03-26T00:28:01.514Z,49.60
2018-03-26T00:29:01.394Z,51.10
2018-03-26T00:30:01.317Z,48.80
2018-03-26T00:31:01.216Z,48.70
2018-03-26T00:32:01.144Z,49.50
2018-03-26T00:33:01.055Z,50.40
2018-03-26T00:34:01.084Z,49.50
2018-03-26T00:35:00.885Z,50.60
2018-03-26T00:36:00.880Z,50.00
2018-03-26T00:37:00.737Z,49.30
2018-03-26T00:38:00.760Z,50.60
2018-03-26T00:39:00.575Z,50.50
2018-03-26T00:40:00.567Z,50.00
2018-03-26T00:41:00.435Z,49.00
2018-03-26T00:42:00.325Z,49.30
2018-03-26T00:43:00.247Z,49.80
2018-03-26T00:44:00.290Z,50.10
2018-03-26T00:45:00.108Z,48.90
2018-03-26T00:46:00.093Z,49.80
2018-03-26T00:46:59.917Z,50.40
2018-03-26T00:47:59.908Z,49.70
2018-03-26T00:48:59.752Z,49.20
2018-03-26T00:49:59.754Z,48.90
2018-03-26T00:50:59.614Z,50.20
2018-03-26T00:51:59.631Z,49.80
2018-03-26T00:52:59.441Z,50.70
2018-03-26T00:53:59.435Z,51.80
2018-03-26T00:54:59.288Z,49.60
2018-03-26T00:55:59.238Z,50.80
2018-03-26T00:56:59.141Z,50.80
2018-03-26T00:57:59.154Z,51.30
2018-03-26T00:58:58.961Z,51.60
2018-03-26T00:59:58.904Z,51.80
2018-03-26T01:00:58.790Z,50.40
2018-03-26T01:01:58.763Z,51.10
2018-03-26T01:02:58.639Z,51.50
2018-03-26T01:03:58.680Z,51.90
2018-03-26T01:04:58.490Z,54.00
2018-03-26T01:05:58.484Z,53.70
2018-03-26T01:06:58.311Z,53.30
2018-03-26T01:07:58.298Z,53.70
2018-03-26T01:08:58.216Z,53.50
2018-03-26T01:09:58.443Z,54.90
2018-03-26T01:10:58.013Z,53.40
2018-03-26T01:13:51.843Z,54.10
2018-03-26T01:14:51.894Z,54.80
2018-03-26T01:15:51.705Z,55.60
2018-03-26T01:16:51.708Z,54.10
2018-03-26T01:17:51.523Z,57.00
2018-03-26T01:18:51.607Z,54.50
2018-03-26T01:19:51.363Z,58.60
2018-03-26T01:20:51.344Z,57.80
2018-03-26T01:21:51.237Z,58.60
2018-03-26T01:22:51.250Z,58.70
2018-03-26T01:23:51.046Z,58.60
2018-03-26T01:24:51.935Z,60.40
2018-03-26T01:25:50.898Z,59.60
2018-03-26T01:26:50.842Z,60.20
2018-03-26T01:27:50.738Z,58.90
2018-03-26T01:28:50.750Z,58.80
2018-03-26T01:29:50.561Z,59.50
2018-03-26T01:30:50.577Z,60.30
2018-03-26T01:31:50.392Z,59.70
2018-03-26T01:32:50.395Z,61.60
2018-03-26T01:33:50.239Z,62.70
2018-03-26T01:34:50.290Z,62.70
2018-03-26T01:35:50.071Z,60.90
2018-03-26T01:36:50.116Z,61.40
2018-03-26T01:37:49.937Z,62.70
2018-03-26T01:38:49.944Z,62.00
2018-03-26T01:39:49.758Z,61.30
2018-03-26T01:40:49.679Z,61.70
2018-03-26T01:41:49.623Z,63.10
2018-03-26T01:42:49.642Z,63.20
2018-03-26T01:43:49.427Z,62.90
2018-03-26T01:44:49.449Z,63.10
2018-03-26T01:45:49.258Z,62.70
2018-03-26T01:46:49.232Z,63.60
2018-03-26T01:47:49.125Z,63.70
2018-03-26T01:48:49.143Z,65.10
2018-03-26T01:49:48.957Z,63.60
2018-03-26T01:50:48.952Z,63.10
2018-03-26T01:51:48.775Z,65.10
2018-03-26T01:52:48.801Z,65.20
2018-03-26T01:53:48.619Z,65.80
2018-03-26T01:54:48.679Z,66.10
2018-03-26T01:55:48.453Z,64.80
2018-03-26T01:56:48.477Z,66.90
2018-03-26T01:57:48.438Z,65.90
2018-03-26T01:58:48.290Z,66.60
2018-03-26T01:59:48.137Z,65.60
2018-03-26T02:00:48.102Z,67.80
2018-03-26T02:01:47.961Z,67.00
2018-03-26T02:02:48.049Z,68.60
2018-03-26T02:03:47.807Z,66.50
2018-03-26T02:04:47.849Z,66.80
2018-03-26T02:05:47.649Z,65.30
2018-03-26T02:06:47.628Z,66.40
2018-03-26T02:07:47.475Z,66.70
2018-03-26T02:08:47.500Z,65.00
2018-03-26T02:09:47.349Z,66.20
2018-03-26T02:10:47.355Z,64.90
2018-03-26T02:11:47.168Z,66.30
2018-03-26T02:12:47.146Z,66.30
2018-03-26T02:13:47.017Z,64.90
2018-03-26T02:14:47.062Z,66.30
2018-03-26T02:15:46.852Z,65.40
2018-03-26T02:18:28.862Z,63.80
2018-03-26T02:19:28.901Z,64.60
2018-03-26T02:20:28.707Z,64.00
2018-03-26T02:21:28.685Z,65.20
2018-03-26T02:22:28.543Z,65.30
2018-03-26T02:23:28.598Z,65.60
2018-03-26T02:24:28.402Z,62.70
2018-03-26T02:25:28.424Z,63.60
2018-03-26T02:26:28.208Z,62.80
2018-03-26T02:27:28.217Z,65.50
2018-03-26T02:28:28.047Z,62.60
2018-03-26T02:29:28.009Z,63.50
2018-03-26T02:30:27.911Z,62.70
2018-03-26T02:31:27.828Z,62.40
2018-03-26T02:32:27.718Z,61.40
2018-03-26T02:33:27.745Z,61.80
2018-03-26T02:34:27.558Z,60.50
2018-03-26T02:35:27.558Z,61.50
2018-03-26T02:36:27.409Z,61.40
2018-03-26T02:37:27.354Z,60.10
2018-03-26T02:38:27.244Z,60.40
2018-03-26T02:39:27.257Z,59.80
2018-03-26T02:40:27.083Z,59.10
2018-03-26T02:41:27.093Z,59.80
2018-03-26T02:42:26.910Z,59.00
2018-03-26T02:43:26.880Z,58.00
2018-03-26T02:44:26.834Z,58.70
2018-03-26T02:45:26.717Z,57.30
2018-03-26T02:46:26.600Z,58.40
2018-03-26T02:47:26.661Z,59.30
2018-03-26T02:48:26.433Z,58.30
2018-03-26T02:49:26.405Z,57.60
2018-03-26T02:50:26.280Z,56.90
2018-03-26T02:51:26.249Z,57.30
2018-03-26T02:52:26.097Z,56.60
2018-03-26T02:53:26.122Z,57.40
2018-03-26T02:54:25.962Z,57.80
2018-03-26T02:55:25.925Z,54.60
2018-03-26T02:56:25.792Z,54.70
2018-03-26T02:57:25.842Z,56.50
2018-03-26T02:58:25.620Z,54.50
2018-03-26T03:01:07.887Z,54.90
2018-03-26T03:02:07.877Z,53.90
2018-03-26T03:03:07.702Z,52.40
2018-03-26T03:04:07.666Z,51.90
2018-03-26T03:05:07.543Z,52.70
2018-03-26T03:06:07.599Z,52.10
2018-03-26T03:07:07.380Z,52.70
2018-03-26T03:08:07.377Z,52.70
2018-03-26T03:09:07.215Z,51.90
2018-03-26T03:11:49.388Z,51.70
2018-03-26T03:12:49.431Z,50.30
2018-03-26T03:13:49.213Z,50.70
2018-03-26T03:14:49.200Z,51.50
2018-03-26T03:15:49.041Z,48.80
2018-03-26T03:16:49.046Z,48.80
2018-03-26T03:17:48.880Z,49.90
2018-03-26T03:18:48.913Z,49.30
2018-03-26T03:19:48.718Z,48.70
2018-03-26T03:20:48.724Z,49.10
2018-03-26T03:21:48.570Z,47.30
2018-03-26T03:22:48.554Z,48.30
2018-03-26T03:23:48.390Z,45.60
2018-03-26T03:24:48.337Z,48.60
2018-03-26T03:25:48.244Z,48.20
2018-03-26T03:26:48.292Z,48.60
2018-03-26T03:27:48.068Z,46.10
2018-03-26T03:28:48.067Z,46.80
2018-03-26T03:29:47.906Z,47.40
2018-03-26T03:30:47.880Z,45.10
2018-03-26T03:31:47.786Z,47.40
2018-03-26T03:32:47.784Z,45.30
2018-03-26T03:33:47.579Z,46.00
2018-03-26T03:34:47.590Z,45.20
2018-03-26T03:35:47.424Z,45.40
2018-03-26T03:36:47.400Z,44.10
2018-03-26T03:37:47.295Z,43.40
2018-03-26T03:38:47.314Z,42.60
2018-03-26T03:39:47.132Z,42.90
2018-03-26T03:40:47.122Z,42.80
2018-03-26T03:41:46.931Z,43.80
2018-03-26T03:42:47.033Z,42.80
2018-03-26T03:43:46.777Z,41.60
2018-03-26T03:44:46.768Z,44.00
2018-03-26T03:45:46.607Z,44.30
2018-03-26T03:46:46.641Z,43.50
2018-03-26T03:47:46.443Z,44.40
2018-03-26T03:48:46.456Z,43.10
2018-03-26T03:49:46.297Z,41.10
2018-03-26T03:50:46.267Z,43.40
2018-03-26T03:51:46.132Z,41.10
2018-03-26T03:52:46.096Z,43.00
2018-03-26T03:53:45.972Z,42.40
2018-03-26T03:54:46.016Z,43.20
2018-03-26T03:55:45.797Z,42.40
2018-03-26T03:56:45.792Z,42.80
2018-03-26T03:57:45.637Z,42.40
2018-03-26T03:58:45.572Z,40.90
2018-03-26T03:59:45.548Z,41.00
2018-03-26T04:00:45.540Z,40.90
2018-03-26T04:01:45.311Z,42.50
2018-03-26T04:02:45.945Z,41.40
2018-03-26T04:03:45.179Z,41.10
2018-03-26T04:04:45.134Z,40.70
2018-03-26T04:05:44.994Z,43.40
2018-03-26T04:06:45.038Z,42.70
2018-03-26T04:07:44.831Z,41.40
2018-03-26T04:08:44.881Z,40.90
2018-03-26T04:09:44.665Z,39.70
2018-03-26T04:10:44.658Z,41.10
2018-03-26T04:11:44.506Z,41.80
2018-03-26T04:12:44.559Z,41.10
2018-03-26T04:13:44.363Z,40.90
2018-03-26T04:14:44.372Z,40.10
2018-03-26T04:15:44.271Z,41.30
2018-03-26T04:16:44.275Z,40.50
2018-03-26T04:17:44.009Z,42.10
2018-03-26T04:18:44.031Z,42.00
2018-03-26T04:19:43.856Z,41.40
2018-03-26T04:20:43.823Z,40.80
2018-03-26T04:21:43.689Z,41.30
2018-03-26T04:22:43.706Z,42.90
2018-03-26T04:23:43.527Z,41.60
2018-03-26T04:24:43.555Z,42.80
2018-03-26T04:25:43.371Z,41.50
2018-03-26T04:26:43.329Z,43.50
2018-03-26T04:27:43.202Z,42.40
2018-03-26T04:28:43.239Z,44.00
2018-03-26T04:29:43.055Z,42.40
2018-03-26T04:30:43.039Z,42.80
2018-03-26T04:31:42.901Z,44.10
2018-03-26T04:32:42.852Z,49.00
2018-03-26T04:33:42.712Z,300.10
2018-03-26T04:34:42.691Z,60.70
2018-03-26T04:35:42.646Z,141.90
2018-03-26T04:36:42.567Z,87.00
2018-03-26T04:37:42.388Z,63.70
2018-03-26T04:38:42.495Z,44.90
2018-03-26T04:39:42.241Z,46.10
2018-03-26T04:40:42.185Z,44.30
2018-03-26T04:41:42.070Z,44.20
2018-03-26T04:42:42.101Z,43.80
2018-03-26T04:43:41.922Z,44.40
2018-03-26T04:44:41.935Z,44.00
2018-03-26T04:45:41.743Z,45.30
2018-03-26T04:46:41.716Z,44.00
2018-03-26T04:47:41.574Z,47.20
2018-03-26T04:48:41.523Z,45.30
2018-03-26T04:49:41.441Z,44.70
2018-03-26T04:50:41.477Z,46.90
2018-03-26T04:51:41.270Z,47.10
2018-03-26T04:52:41.247Z,45.40
2018-03-26T04:53:41.087Z,47.10
2018-03-26T04:54:41.042Z,48.30
2018-03-26T04:55:40.963Z,47.30
2018-03-26T04:56:40.956Z,47.30
2018-03-26T04:57:40.767Z,48.50
2018-03-26T04:58:40.765Z,48.90
2018-03-26T04:59:40.626Z,49.00
2018-03-26T05:00:40.578Z,48.00
2018-03-26T05:01:40.443Z,48.30
2018-03-26T05:02:40.380Z,49.00
2018-03-26T05:03:40.270Z,50.00
2018-03-26T05:04:40.325Z,50.70
2018-03-26T05:05:40.122Z,49.20
2018-03-26T05:06:40.131Z,49.20
2018-03-26T05:07:39.950Z,48.50
2018-03-26T05:08:40.024Z,51.00
2018-03-26T05:09:39.801Z,51.30
2018-03-26T05:10:39.853Z,48.60
2018-03-26T05:11:39.621Z,51.50
2018-03-26T05:12:39.632Z,50.50
2018-03-26T05:13:39.461Z,50.80
2018-03-26T05:14:39.414Z,50.80
2018-03-26T05:15:39.297Z,50.40
2018-03-26T05:16:39.279Z,51.60
2018-03-26T05:17:39.135Z,52.30
2018-03-26T05:18:39.067Z,51.70
2018-03-26T05:19:38.965Z,51.40
2018-03-26T05:20:38.966Z,52.70
2018-03-26T05:21:38.820Z,52.10
2018-03-26T05:22:38.776Z,52.00
2018-03-26T05:23:38.636Z,54.60
2018-03-26T05:24:38.688Z,53.50
2018-03-26T05:25:38.469Z,54.50
2018-03-26T05:26:38.517Z,52.80
2018-03-26T05:27:38.314Z,53.60
2018-03-26T05:28:38.307Z,53.30
2018-03-26T05:29:38.180Z,51.70
2018-03-26T05:30:38.115Z,44.00
2018-03-26T05:31:38.005Z,45.30
2018-03-26T05:32:38.046Z,44.10
2018-03-26T05:33:37.830Z,42.30
2018-03-26T05:34:37.853Z,46.50
2018-03-26T05:35:37.657Z,58.40
2018-03-26T05:36:37.634Z,86.60
2018-03-26T05:37:37.524Z,125.20
2018-03-26T05:38:37.447Z,101.50
2018-03-26T05:39:37.348Z,75.00
2018-03-26T05:40:37.358Z,91.00
2018-03-26T05:41:37.195Z,74.10
2018-03-26T05:42:37.203Z,53.10
2018-03-26T05:43:37.017Z,66.90
2018-03-26T05:44:37.074Z,54.30
2018-03-26T05:45:36.859Z,64.50
2018-03-26T05:46:36.887Z,73.00
2018-03-26T05:47:36.700Z,60.90
2018-03-26T05:48:36.733Z,53.80
2018-03-26T05:49:36.518Z,55.70
2018-03-26T05:50:36.510Z,53.90
2018-03-26T05:51:36.360Z,55.70
2018-03-26T05:52:36.308Z,54.90
2018-03-26T05:53:36.216Z,56.40
2018-03-26T05:54:36.222Z,57.60
2018-03-26T05:55:36.035Z,59.20
2018-03-26T05:56:36.031Z,57.50
2018-03-26T05:57:35.904Z,63.50
2018-03-26T05:58:35.884Z,61.40
2018-03-26T05:59:35.711Z,59.80
2018-03-26T06:00:35.751Z,58.90
2018-03-26T06:01:35.553Z,58.70
2018-03-26T06:02:35.566Z,58.80
2018-03-26T06:03:35.402Z,56.60
2018-03-26T06:04:35.488Z,58.10
2018-03-26T06:05:35.219Z,57.60
2018-03-26T06:06:35.195Z,57.50
2018-03-26T06:07:35.164Z,58.50
2018-03-26T06:08:35.129Z,58.70
2018-03-26T06:09:34.889Z,58.70
2018-03-26T06:10:34.973Z,58.30
2018-03-26T06:11:34.745Z,56.10
2018-03-26T06:12:34.712Z,57.10
2018-03-26T06:13:34.595Z,56.30
2018-03-26T06:14:34.619Z,56.70
2018-03-26T06:15:34.435Z,55.30
2018-03-26T06:16:34.432Z,57.50
2018-03-26T06:17:34.243Z,57.70
2018-03-26T06:18:34.234Z,56.50
2018-03-26T06:19:34.076Z,57.10
2018-03-26T06:20:34.073Z,58.40
2018-03-26T06:21:33.905Z,57.10
2018-03-26T06:24:15.917Z,58.40
2018-03-26T06:25:15.952Z,56.70
2018-03-26T06:26:15.738Z,60.00
2018-03-26T06:27:15.757Z,65.60
2018-03-26T06:28:15.573Z,83.80
2018-03-26T06:29:15.596Z,117.10
2018-03-26T06:30:15.406Z,67.30
2018-03-26T06:31:15.367Z,73.10
2018-03-26T06:32:15.245Z,61.10
2018-03-26T06:33:15.282Z,62.00
2018-03-26T06:34:15.090Z,61.50
2018-03-26T06:35:15.132Z,61.60
2018-03-26T06:36:14.922Z,59.10
2018-03-26T06:37:15.035Z,61.20
2018-03-26T06:38:14.759Z,62.00
2018-03-26T06:39:14.807Z,59.40
2018-03-26T06:40:14.609Z,61.40
2018-03-26T06:41:14.648Z,66.20
2018-03-26T06:42:14.436Z,67.20
2018-03-26T06:43:14.388Z,67.30
2018-03-26T06:44:14.330Z,71.30
2018-03-26T06:45:14.212Z,69.90
2018-03-26T06:46:14.126Z,73.40
2018-03-26T06:47:14.052Z,73.80
2018-03-26T06:48:13.944Z,71.60
2018-03-26T06:49:13.907Z,69.40
2018-03-26T06:50:13.786Z,69.30
2018-03-26T06:51:13.789Z,69.60
2018-03-26T06:52:13.635Z,70.00
2018-03-26T06:53:13.688Z,69.10
2018-03-26T06:54:13.472Z,69.50
2018-03-26T06:55:13.492Z,68.70
2018-03-26T06:56:13.335Z,69.70
2018-03-26T06:57:13.299Z,68.60
2018-03-26T06:58:13.136Z,64.00
2018-03-26T06:59:13.103Z,67.60
2018-03-26T07:00:13.029Z,68.10
2018-03-26T07:01:12.958Z,67.40
2018-03-26T07:02:12.812Z,71.10
2018-03-26T07:03:12.820Z,73.10
2018-03-26T07:04:12.641Z,71.50
2018-03-26T07:05:12.647Z,67.20
2018-03-26T07:06:12.578Z,65.30
2018-03-26T07:07:12.536Z,69.30
2018-03-26T07:08:12.330Z,69.10
2018-03-26T07:09:12.341Z,71.30
2018-03-26T07:10:12.187Z,72.50
2018-03-26T07:11:12.094Z,71.70
2018-03-26T07:12:12.023Z,67.70
2018-03-26T07:13:11.967Z,71.50
2018-03-26T07:14:11.842Z,71.00
2018-03-26T07:15:11.871Z,68.20
2018-03-26T07:16:11.690Z,70.40
2018-03-26T07:17:11.709Z,68.10
2018-03-26T07:18:11.515Z,67.90
2018-03-26T07:19:11.499Z,70.10
2018-03-26T07:20:11.365Z,68.90
2018-03-26T07:21:11.300Z,66.50
2018-03-26T07:22:11.217Z,68.80
2018-03-26T07:23:11.223Z,71.50
2018-03-26T07:24:11.034Z,70.10
2018-03-26T07:25:11.020Z,68.70
2018-03-26T07:26:10.862Z,67.70
2018-03-26T07:27:10.959Z,68.10
2018-03-26T07:28:10.737Z,68.50
2018-03-26T07:29:10.734Z,65.90
2018-03-26T07:30:10.668Z,64.20
2018-03-26T07:31:10.547Z,67.50
2018-03-26T07:32:10.400Z,67.10
2018-03-26T07:33:10.355Z,67.20
2018-03-26T07:34:10.225Z,67.60
2018-03-26T07:35:10.265Z,64.90
2018-03-26T07:36:10.065Z,65.80
2018-03-26T07:37:10.102Z,65.30
2018-03-26T07:38:09.902Z,65.50
2018-03-26T07:39:09.876Z,66.20
2018-03-26T07:40:09.752Z,64.70
2018-03-26T07:41:09.785Z,64.20
2018-03-26T07:42:09.611Z,63.30
2018-03-26T07:43:09.703Z,62.30
2018-03-26T07:44:09.466Z,60.80
2018-03-26T07:45:09.409Z,63.70
2018-03-26T07:46:09.255Z,66.10
2018-03-26T07:47:09.256Z,63.40
2018-03-26T07:48:09.118Z,68.10
2018-03-26T07:49:09.137Z,64.50
2018-03-26T07:50:08.949Z,63.10
2018-03-26T07:51:08.936Z,59.80
2018-03-26T07:52:08.770Z,62.20
2018-03-26T07:53:08.779Z,60.50
2018-03-26T07:54:08.608Z,61.00
2018-03-26T07:55:08.647Z,59.40
2018-03-26T07:56:08.476Z,61.00
2018-03-26T07:57:08.482Z,62.00
2018-03-26T07:58:08.322Z,60.30
2018-03-26T07:59:08.268Z,59.10
2018-03-26T08:00:08.138Z,59.00
2018-03-26T08:01:08.196Z,57.90
2018-03-26T08:02:07.986Z,55.10
2018-03-26T08:03:08.129Z,55.60
2018-03-26T08:04:07.832Z,55.30
2018-03-26T08:05:07.804Z,55.30
2018-03-26T08:06:07.771Z,56.50
2018-03-26T08:07:07.787Z,56.20
2018-03-26T08:08:07.505Z,55.20
2018-03-26T08:09:07.468Z,55.10
2018-03-26T08:10:07.352Z,55.30
2018-03-26T08:11:07.327Z,55.00
2018-03-26T08:12:07.183Z,53.60
2018-03-26T08:13:07.137Z,54.20
2018-03-26T08:14:07.050Z,53.90
2018-03-26T08:15:07.046Z,54.10
2018-03-26T08:16:06.879Z,53.30
2018-03-26T08:17:06.879Z,50.80
2018-03-26T08:18:06.721Z,50.50
2018-03-26T08:19:06.802Z,49.20
2018-03-26T08:20:06.554Z,51.80
2018-03-26T08:21:06.481Z,50.00
2018-03-26T08:22:06.403Z,51.90
2018-03-26T08:23:06.384Z,49.80
2018-03-26T08:24:06.261Z,49.50
2018-03-26T08:25:06.310Z,47.60
2018-03-26T08:26:06.099Z,48.30
2018-03-26T08:27:06.026Z,49.10
2018-03-26T08:28:05.927Z,47.30
2018-03-26T08:29:05.945Z,47.70
2018-03-26T08:30:05.813Z,44.30
2018-03-26T08:31:05.819Z,43.80
2018-03-26T08:32:05.624Z,42.50
2018-03-26T08:33:05.644Z,42.70
2018-03-26T08:34:05.474Z,42.30
2018-03-26T08:35:05.487Z,41.90
2018-03-26T08:36:05.349Z,40.50
2018-03-26T08:37:05.351Z,40.60
2018-03-26T08:38:05.164Z,40.50
2018-03-26T08:39:05.261Z,43.40
2018-03-26T08:40:05.041Z,44.50
2018-03-26T08:42:46.993Z,46.30
2018-03-26T08:43:46.961Z,45.00
2018-03-26T08:44:46.777Z,44.40
2018-03-26T08:45:46.927Z,43.60
2018-03-26T08:46:46.628Z,45.10
2018-03-26T08:47:46.989Z,42.60
2018-03-26T08:48:46.489Z,41.80
2018-03-26T08:51:28.441Z,42.30
2018-03-26T08:52:28.396Z,42.10
2018-03-26T08:53:29.365Z,42.00
2018-03-26T08:54:28.213Z,42.60
2018-03-26T08:55:28.581Z,42.10
2018-03-26T08:56:28.107Z,37.00
2018-03-26T08:57:28.003Z,35.80
2018-03-26T08:58:28.013Z,36.80
2018-03-26T08:59:27.843Z,41.70
2018-03-26T09:00:27.859Z,41.30
2018-03-26T09:01:27.684Z,40.90
2018-03-26T09:02:27.641Z,44.60
2018-03-26T09:03:27.522Z,39.80
2018-03-26T09:04:27.550Z,39.30
2018-03-26T09:05:27.388Z,39.70
2018-03-26T09:06:27.356Z,36.80
2018-03-26T09:07:27.226Z,39.10
2018-03-26T09:08:27.961Z,34.80
2018-03-26T09:09:27.063Z,29.90
2018-03-26T09:10:27.108Z,27.20
2018-03-26T09:11:26.914Z,28.40
2018-03-26T09:12:26.891Z,29.00
2018-03-26T09:13:26.767Z,30.70
2018-03-26T09:14:26.790Z,31.30
2018-03-26T09:15:26.733Z,30.90
2018-03-26T09:16:26.556Z,31.10
2018-03-26T09:17:26.481Z,30.60
2018-03-26T09:18:26.534Z,30.40
2018-03-26T09:19:26.321Z,29.40
2018-03-26T09:20:26.310Z,29.10
2018-03-26T09:21:26.185Z,29.20
2018-03-26T09:22:26.224Z,29.40
2018-03-26T09:23:26.026Z,29.40
2018-03-26T09:24:26.041Z,30.00
2018-03-26T09:25:25.874Z,29.30
2018-03-26T09:26:25.883Z,29.50
2018-03-26T09:27:25.732Z,29.20
2018-03-26T09:28:25.756Z,28.90
2018-03-26T09:29:25.573Z,31.40
2018-03-26T09:30:25.565Z,29.60
2018-03-26T09:31:25.461Z,27.80
2018-03-26T09:32:25.520Z,28.40
2018-03-26T09:33:25.275Z,27.00
2018-03-26T09:34:25.312Z,25.00
2018-03-26T09:35:25.123Z,23.40
2018-03-26T09:36:25.099Z,21.10
2018-03-26T09:37:24.995Z,19.80
2018-03-26T09:38:25.004Z,19.40
2018-03-26T09:39:24.835Z,20.00
2018-03-26T09:40:24.823Z,21.30
2018-03-26T09:41:24.729Z,20.70
2018-03-26T09:42:24.754Z,21.20
2018-03-26T09:43:24.560Z,21.70
2018-03-26T09:44:24.531Z,22.40
2018-03-26T09:45:24.404Z,20.70
2018-03-26T09:46:24.361Z,21.50
2018-03-26T09:47:24.287Z,18.30
2018-03-26T09:48:24.245Z,15.10
2018-03-26T09:49:24.099Z,15.30
2018-03-26T09:50:24.054Z,15.40
2018-03-26T09:51:23.958Z,16.50
2018-03-26T09:52:24.007Z,15.10
2018-03-26T09:53:23.792Z,14.00
2018-03-26T09:54:23.781Z,13.50
2018-03-26T09:55:23.653Z,12.50
2018-03-26T09:56:23.686Z,12.50
2018-03-26T09:57:23.601Z,13.80
2018-03-26T09:58:23.538Z,14.70
2018-03-26T09:59:23.354Z,14.40
2018-03-26T10:00:23.518Z,13.80
2018-03-26T10:01:23.211Z,13.50
2018-03-26T10:02:23.219Z,11.70
2018-03-26T10:03:23.078Z,12.30
2018-03-26T10:04:23.051Z,13.60
2018-03-26T10:05:22.916Z,19.40
2018-03-26T10:06:22.933Z,11.70
2018-03-26T10:07:22.798Z,8.00
2018-03-26T10:08:22.738Z,6.50
2018-03-26T10:09:22.638Z,6.50
2018-03-26T10:10:22.650Z,8.00
2018-03-26T10:11:22.471Z,6.50
2018-03-26T10:12:22.461Z,7.80
2018-03-26T10:13:22.343Z,8.40
2018-03-26T10:14:22.410Z,8.00
2018-03-26T10:15:22.199Z,9.20
2018-03-26T10:16:22.185Z,8.80
2018-03-26T10:17:22.061Z,8.80
2018-03-26T10:18:22.026Z,7.80
2018-03-26T10:19:21.899Z,7.60
2018-03-26T10:20:21.928Z,8.10
2018-03-26T10:21:21.757Z,8.30
2018-03-26T10:22:21.823Z,8.30
2018-03-26T10:23:21.614Z,8.00
2018-03-26T10:24:21.648Z,7.80
2018-03-26T10:25:21.490Z,8.20
2018-03-26T10:26:21.536Z,8.20
2018-03-26T10:27:21.321Z,7.90
2018-03-26T10:28:21.376Z,8.10
2018-03-26T10:29:21.203Z,8.00
2018-03-26T10:30:21.192Z,8.40
2018-03-26T10:31:21.049Z,8.00
2018-03-26T10:32:21.074Z,8.40
2018-03-26T10:33:20.922Z,8.70
2018-03-26T10:34:20.903Z,8.50
2018-03-26T10:35:20.775Z,8.20
2018-03-26T10:36:20.778Z,8.20
2018-03-26T10:37:20.617Z,7.90
2018-03-26T10:38:20.593Z,7.60
2018-03-26T10:39:20.480Z,7.70
2018-03-26T10:40:20.530Z,7.40
2018-03-26T10:41:20.419Z,7.60
2018-03-26T10:42:20.304Z,6.40
2018-03-26T10:43:20.194Z,6.00
2018-03-26T10:44:20.206Z,5.40
2018-03-26T10:45:20.197Z,5.40
2018-03-26T10:46:20.019Z,5.50
2018-03-26T10:47:19.909Z,6.20
2018-03-26T10:48:20.042Z,6.60
2018-03-26T10:49:19.771Z,6.70
2018-03-26T10:50:19.785Z,5.50
2018-03-26T10:51:19.615Z,5.80
2018-03-26T10:52:19.645Z,5.50
2018-03-26T10:53:19.478Z,4.80
2018-03-26T10:54:19.469Z,5.60
2018-03-26T10:55:19.364Z,5.60
2018-03-26T10:56:19.422Z,5.30
2018-03-26T10:57:19.184Z,5.10
2018-03-26T10:58:19.184Z,4.50
2018-03-26T10:59:19.042Z,4.60
2018-03-26T11:00:19.179Z,4.80
2018-03-26T11:01:18.910Z,4.80
2018-03-26T11:02:18.895Z,5.30
2018-03-26T11:03:18.759Z,5.50
2018-03-26T11:04:18.810Z,5.20
2018-03-26T11:05:18.609Z,5.60
2018-03-26T11:06:18.593Z,6.50
2018-03-26T11:07:18.464Z,6.90
2018-03-26T11:08:18.392Z,6.40
2018-03-26T11:09:18.304Z,6.70
2018-03-26T11:10:18.416Z,6.40
2018-03-26T11:11:18.173Z,6.30
2018-03-26T11:12:18.146Z,7.20
2018-03-26T11:13:18.021Z,6.70
2018-03-26T11:14:18.058Z,6.80
2018-03-26T11:15:17.857Z,6.00
2018-03-26T11:16:17.912Z,5.50
2018-03-26T11:17:17.710Z,5.40
2018-03-26T11:18:17.673Z,6.50
2018-03-26T11:19:17.563Z,7.20
2018-03-26T11:20:17.589Z,5.90
2018-03-26T11:21:17.435Z,6.20
2018-03-26T11:22:17.390Z,5.60
2018-03-26T11:23:17.252Z,6.00
2018-03-26T11:24:17.314Z,4.70
2018-03-26T11:25:17.102Z,5.20
2018-03-26T11:26:17.150Z,4.90
2018-03-26T11:27:16.984Z,4.60
2018-03-26T11:28:16.930Z,5.30
2018-03-26T11:29:16.813Z,5.00
2018-03-26T11:30:16.900Z,5.10
2018-03-26T11:31:16.682Z,5.30
2018-03-26T11:32:16.670Z,5.20
2018-03-26T11:33:16.510Z,4.70
2018-03-26T11:34:16.548Z,5.00
2018-03-26T11:35:16.347Z,5.50
2018-03-26T11:36:16.421Z,5.50
2018-03-26T11:37:16.214Z,5.10
2018-03-26T11:38:16.174Z,4.50
2018-03-26T11:39:16.036Z,4.30
2018-03-26T11:40:16.078Z,4.80
2018-03-26T11:41:15.879Z,4.90
2018-03-26T11:42:15.926Z,5.30
2018-03-26T11:43:15.737Z,4.90
2018-03-26T11:44:15.705Z,5.20
2018-03-26T11:45:15.579Z,5.10
2018-03-26T11:46:15.607Z,4.80
2018-03-26T11:47:15.453Z,5.00
2018-03-26T11:48:15.413Z,4.70
2018-03-26T11:49:15.276Z,4.50
2018-03-26T11:50:15.243Z,4.60
2018-03-26T11:51:15.105Z,4.80
2018-03-26T11:52:16.173Z,3.90
2018-03-26T11:53:14.972Z,4.00
2018-03-26T11:54:14.936Z,3.80
2018-03-26T11:55:14.849Z,4.30
2018-03-26T11:56:14.852Z,4.60
2018-03-26T11:57:14.657Z,4.40
2018-03-26T11:58:14.741Z,5.00
2018-03-26T11:59:14.491Z,4.20
2018-03-26T12:00:14.471Z,4.70
2018-03-26T12:01:14.337Z,5.10
2018-03-26T12:02:14.387Z,5.20
2018-03-26T12:03:14.251Z,5.30
2018-03-26T12:04:14.189Z,5.00
2018-03-26T12:05:14.085Z,5.10
2018-03-26T12:06:14.007Z,5.20
2018-03-26T12:07:13.880Z,5.30
2018-03-26T12:08:13.947Z,5.60
2018-03-26T12:09:13.817Z,5.80
2018-03-26T12:10:13.710Z,5.90
2018-03-26T12:11:13.568Z,5.90
2018-03-26T12:12:13.553Z,5.90
2018-03-26T12:13:13.451Z,5.50
2018-03-26T12:14:13.447Z,4.10
2018-03-26T12:15:13.253Z,3.90
2018-03-26T12:16:13.267Z,3.70
2018-03-26T12:17:13.099Z,3.50
2018-03-26T12:18:13.156Z,3.30
2018-03-26T12:19:12.969Z,3.60
2018-03-26T12:20:12.976Z,3.70
2018-03-26T12:21:12.812Z,3.50
2018-03-26T12:22:12.772Z,3.70
2018-03-26T12:23:12.644Z,4.10
2018-03-26T12:24:12.607Z,3.80
2018-03-26T12:25:12.482Z,3.90
2018-03-26T12:26:12.487Z,3.70
2018-03-26T12:27:12.343Z,4.40
2018-03-26T12:28:12.298Z,4.50
2018-03-26T12:29:12.233Z,4.50
2018-03-26T12:30:12.204Z,5.00
2018-03-26T12:31:12.023Z,4.30
2018-03-26T12:32:12.144Z,3.90
2018-03-26T12:33:11.865Z,3.60
2018-03-26T12:34:11.870Z,3.70
2018-03-26T12:35:11.722Z,2.90
2018-03-26T12:36:11.758Z,3.20
2018-03-26T12:37:11.562Z,2.90
2018-03-26T12:38:11.564Z,3.20
2018-03-26T12:39:11.408Z,4.10
2018-03-26T12:40:11.392Z,3.50
2018-03-26T12:41:11.278Z,3.60
2018-03-26T12:42:11.580Z,3.30
2018-03-26T12:43:11.098Z,3.90
2018-03-26T12:44:11.848Z,3.50
2018-03-26T12:45:11.046Z,3.80
2018-03-26T12:46:10.981Z,3.20
2018-03-26T12:47:10.789Z,3.60
2018-03-26T12:48:10.889Z,3.40
2018-03-26T12:49:10.615Z,3.30
2018-03-26T12:50:10.651Z,3.30
2018-03-26T12:51:10.458Z,3.40
2018-03-26T12:52:10.512Z,3.30
2018-03-26T12:53:10.307Z,3.20
2018-03-26T12:54:10.324Z,3.70
2018-03-26T12:55:10.171Z,3.60
2018-03-26T12:56:10.158Z,3.40
2018-03-26T12:57:09.992Z,3.30
2018-03-26T12:58:10.045Z,3.50
2018-03-26T12:59:09.843Z,3.70
2018-03-26T13:00:09.847Z,3.60
2018-03-26T13:01:09.693Z,3.60
2018-03-26T13:02:09.667Z,4.00
2018-03-26T13:03:09.522Z,3.60
2018-03-26T13:04:09.583Z,4.10
2018-03-26T13:05:09.360Z,4.20
2018-03-26T13:06:09.430Z,3.50
2018-03-26T13:07:09.204Z,4.20
2018-03-26T13:08:09.177Z,4.00
2018-03-26T13:09:09.096Z,4.10